Time;durP1;ratioP1;P1;durP2;ratioP2;P2;SDS_P1;SDS_P2;PMS_P1;PMS_P2;Temp;Humidity;BMP_temperature;BMP_pressure;BME280_temperature;BME280_humidity;BME280_pressure;Samples;Min_cycle;Max_cycle;Signal;HPM_P1;HPM_P2
2022/04/12 00:02:22;;;;;;;10.93;4.65;;;10.80;99.90;;;;;;5096666;28;20098;-63
2022/04/12 00:04:48;;;;;;;11.27;5.10;;;10.80;99.90;;;;;;5093372;28;20050;-64
2022/04/12 00:07:15;;;;;;;8.85;4.60;;;10.80;99.90;;;;;;5102106;28;20016;-64
2022/04/12 00:09:41;;;;;;;8.18;4.68;;;10.70;99.90;;;;;;5092360;28;20024;-64
2022/04/12 00:12:08;;;;;;;10.23;4.43;;;10.70;99.90;;;;;;5091714;28;20020;-62
2022/04/12 00:14:34;;;;;;;10.23;4.50;;;10.70;99.90;;;;;;5091240;28;20020;-63
2022/04/12 00:19:43;;;;;;;6.72;4.32;;;10.70;99.90;;;;;;5099331;28;20043;-65
2022/04/12 00:22:09;;;;;;;10.60;4.47;;;10.60;99.90;;;;;;5095768;28;20032;-62
2022/04/12 00:24:34;;;;;;;8.23;4.18;;;10.60;99.90;;;;;;5091142;28;20047;-62
2022/04/12 00:27:00;;;;;;;9.07;4.78;;;10.60;99.90;;;;;;5099677;28;20069;-65
2022/04/12 00:29:25;;;;;;;11.15;4.30;;;10.60;99.90;;;;;;5091265;28;20043;-64
2022/04/12 00:31:51;;;;;;;11.65;4.60;;;10.60;99.90;;;;;;5094669;28;20020;-66
2022/04/12 00:34:16;;;;;;;10.15;4.93;;;10.50;99.90;;;;;;5077252;28;20364;-65
2022/04/12 00:36:42;;;;;;;11.13;4.57;;;10.50;99.90;;;;;;5096383;28;20028;-65
2022/04/12 00:39:08;;;;;;;7.65;4.85;;;10.50;99.90;;;;;;5097334;28;20485;-65
2022/04/12 00:41:35;;;;;;;10.38;5.13;;;10.50;99.90;;;;;;5096566;28;20023;-64
2022/04/12 00:44:01;;;;;;;6.88;4.50;;;10.50;99.90;;;;;;5095684;28;20507;-65
2022/04/12 00:46:27;;;;;;;9.10;4.97;;;10.50;99.90;;;;;;5090839;28;20032;-65
2022/04/12 00:48:52;;;;;;;12.77;4.70;;;10.50;99.90;;;;;;5095805;28;20024;-65
2022/04/12 00:51:20;;;;;;;9.27;4.50;;;10.50;99.90;;;;;;5101320;28;20027;-63
2022/04/12 00:53:46;;;;;;;9.57;4.97;;;10.50;99.90;;;;;;5104629;28;20111;-64
2022/04/12 00:56:11;;;;;;;9.88;4.75;;;10.50;99.90;;;;;;5102789;28;20023;-64
2022/04/12 00:58:38;;;;;;;11.57;4.97;;;10.40;99.90;;;;;;5100678;28;20038;-64
2022/04/12 01:01:04;;;;;;;9.40;4.40;;;10.40;99.90;;;;;;5097786;28;20395;-64
2022/04/12 01:03:29;;;;;;;9.80;4.40;;;10.40;99.90;;;;;;5099948;28;20031;-65
2022/04/12 01:05:57;;;;;;;12.80;5.00;;;10.40;99.90;;;;;;5110649;28;20028;-63
2022/04/12 01:08:22;;;;;;;9.10;4.40;;;10.30;99.90;;;;;;5090946;28;20055;-62
2022/04/12 01:10:48;;;;;;;9.15;4.93;;;10.20;99.90;;;;;;5101004;28;20031;-64
2022/04/12 01:13:14;;;;;;;7.40;4.22;;;10.20;99.90;;;;;;5095551;28;20036;-62
2022/04/12 01:15:42;;;;;;;10.52;4.47;;;10.20;99.90;;;;;;5112071;28;20034;-63
2022/04/12 01:18:08;;;;;;;6.75;4.20;;;10.30;99.90;;;;;;5098586;28;20051;-65
2022/04/12 01:20:34;;;;;;;10.60;4.72;;;10.30;99.90;;;;;;5105392;28;20027;-65
2022/04/12 01:23:06;;;;;;;7.68;4.07;;;10.30;99.90;;;;;;5094494;28;20493;-63
2022/04/12 01:25:31;;;;;;;9.50;4.88;;;10.30;99.90;;;;;;5099033;28;20040;-64
2022/04/12 01:27:58;;;;;;;8.82;4.28;;;10.30;99.90;;;;;;5099377;28;20087;-64
2022/04/12 01:30:24;;;;;;;10.13;4.35;;;10.30;99.90;;;;;;5100917;28;20032;-63
2022/04/12 01:32:50;;;;;;;14.25;4.38;;;10.30;99.90;;;;;;5111492;28;20114;-64
2022/04/12 01:35:15;;;;;;;8.13;4.20;;;10.30;99.90;;;;;;5110353;28;20027;-64
2022/04/12 01:37:41;;;;;;;10.80;5.63;;;10.30;99.90;;;;;;5103574;28;20028;-61
2022/04/12 01:40:09;;;;;;;6.72;3.90;;;10.30;99.90;;;;;;5097182;28;20574;-60
2022/04/12 01:42:35;;;;;;;6.22;3.92;;;10.30;99.90;;;;;;5108487;28;20047;-63
2022/04/12 01:45:01;;;;;;;7.95;4.32;;;10.40;99.90;;;;;;5110039;28;20062;-63
2022/04/12 01:47:26;;;;;;;8.48;4.60;;;10.30;99.90;;;;;;5102777;28;20028;-64
2022/04/12 01:49:52;;;;;;;8.70;4.70;;;10.40;99.90;;;;;;5106906;28;20557;-63
2022/04/12 01:52:17;;;;;;;8.23;4.72;;;10.40;99.90;;;;;;5102621;28;20044;-63
2022/04/12 01:54:43;;;;;;;10.50;4.40;;;10.40;99.90;;;;;;5097831;28;20027;-65
2022/04/12 01:57:08;;;;;;;7.60;4.65;;;10.40;99.90;;;;;;5104670;28;20066;-65
2022/04/12 01:59:34;;;;;;;7.72;4.22;;;10.40;99.90;;;;;;5098465;28;20036;-63
2022/04/12 02:01:59;;;;;;;10.40;4.45;;;10.40;99.90;;;;;;5107888;28;20036;-64
2022/04/12 02:04:25;;;;;;;12.07;4.22;;;10.40;99.90;;;;;;5101725;28;20016;-65
2022/04/12 02:06:50;;;;;;;11.57;4.90;;;10.40;99.90;;;;;;5092182;28;20024;-65
2022/04/12 02:09:16;;;;;;;10.82;5.07;;;10.40;99.90;;;;;;5099237;28;20592;-62
2022/04/12 02:11:41;;;;;;;8.98;4.93;;;10.40;99.90;;;;;;5099587;28;20031;-63
2022/04/12 02:14:07;;;;;;;9.98;4.95;;;10.50;99.90;;;;;;5098421;28;20033;-65
2022/04/12 02:16:36;;;;;;;12.27;4.45;;;10.50;99.90;;;;;;5094401;28;20110;-64
2022/04/12 02:19:03;;;;;;;8.05;4.70;;;10.50;99.90;;;;;;5100357;28;20506;-63
2022/04/12 02:21:28;;;;;;;9.10;4.85;;;10.60;99.90;;;;;;5098218;28;20024;-65
2022/04/12 02:23:54;;;;;;;9.10;4.13;;;10.50;99.90;;;;;;5105767;28;20150;-65
2022/04/12 02:26:19;;;;;;;10.98;4.50;;;10.60;99.90;;;;;;5097670;28;20277;-64
2022/04/12 02:28:45;;;;;;;8.85;4.53;;;10.60;99.90;;;;;;5093029;28;20020;-64
2022/04/12 02:31:10;;;;;;;10.75;4.88;;;10.60;99.90;;;;;;5097482;28;20093;-64
2022/04/12 02:33:36;;;;;;;10.57;4.50;;;10.60;99.90;;;;;;5094861;28;20522;-63
2022/04/12 02:36:01;;;;;;;11.88;5.38;;;10.60;99.90;;;;;;5096981;28;20028;-65
2022/04/12 02:38:27;;;;;;;9.52;4.78;;;10.70;99.90;;;;;;5102204;28;20036;-63
2022/04/12 02:40:52;;;;;;;8.13;4.40;;;10.70;99.90;;;;;;5092612;28;20032;-63
2022/04/12 02:43:18;;;;;;;11.57;4.82;;;10.70;99.90;;;;;;5092883;28;20035;-65
2022/04/12 02:45:44;;;;;;;9.20;4.88;;;10.60;99.90;;;;;;5092495;28;20034;-63
2022/04/12 02:48:11;;;;;;;11.02;4.43;;;10.60;99.90;;;;;;5103663;28;20031;-65
2022/04/12 02:50:37;;;;;;;7.05;4.53;;;10.60;99.90;;;;;;5100812;28;20450;-63
2022/04/12 02:53:02;;;;;;;9.23;4.82;;;10.60;99.90;;;;;;5089292;28;20107;-64
2022/04/12 02:55:28;;;;;;;7.82;4.32;;;10.60;99.90;;;;;;5101865;28;20073;-63
2022/04/12 02:57:54;;;;;;;8.43;4.10;;;10.60;99.90;;;;;;5092887;28;20034;-63
2022/04/12 03:00:19;;;;;;;5.57;3.60;;;10.60;99.90;;;;;;5105482;28;20028;-63
2022/04/12 03:02:45;;;;;;;6.85;4.13;;;10.60;99.90;;;;;;5092718;28;20036;-64
2022/04/12 03:05:10;;;;;;;12.88;4.88;;;10.60;99.90;;;;;;5091985;28;20149;-64
2022/04/12 03:07:36;;;;;;;8.18;4.40;;;10.50;99.90;;;;;;5089443;28;20036;-64
2022/04/12 03:10:03;;;;;;;12.50;5.40;;;10.50;99.90;;;;;;5093301;28;20028;-64
2022/04/12 03:12:28;;;;;;;11.82;5.03;;;10.50;99.90;;;;;;5096577;28;20031;-63
2022/04/12 03:14:54;;;;;;;9.13;4.43;;;10.50;99.90;;;;;;5095047;28;20587;-65
2022/04/12 03:17:20;;;;;;;9.65;4.68;;;10.50;99.90;;;;;;5098467;28;20437;-62
2022/04/12 03:19:46;;;;;;;9.50;5.22;;;10.50;99.90;;;;;;5094079;28;20024;-63
2022/04/12 03:22:12;;;;;;;10.45;4.80;;;10.50;99.90;;;;;;5097471;28;20081;-65
2022/04/12 03:24:37;;;;;;;6.50;3.92;;;10.50;99.90;;;;;;5092082;28;20034;-64
2022/04/12 03:27:03;;;;;;;8.95;4.78;;;10.50;99.90;;;;;;5115350;22;20044;-63
2022/04/12 03:29:28;;;;;;;8.52;4.80;;;10.50;99.90;;;;;;5087726;28;20039;-63
2022/04/12 03:31:54;;;;;;;7.95;4.18;;;10.40;99.90;;;;;;5091410;28;20036;-64
2022/04/12 03:34:19;;;;;;;9.00;4.28;;;10.40;99.90;;;;;;5102915;28;20062;-63
2022/04/12 03:36:46;;;;;;;9.43;4.80;;;10.40;99.90;;;;;;5084952;28;20098;-63
2022/04/12 03:39:17;;;;;;;7.93;4.07;;;10.40;99.90;;;;;;5082182;28;20028;-63
2022/04/12 03:41:46;;;;;;;8.30;4.55;;;10.40;99.90;;;;;;5084184;28;20035;-64
2022/04/12 03:44:15;;;;;;;11.68;5.70;;;10.40;99.90;;;;;;5085111;28;20059;-64
2022/04/12 03:46:41;;;;;;;9.73;4.43;;;10.40;99.90;;;;;;5083842;28;20073;-64
2022/04/12 03:49:07;;;;;;;11.60;4.43;;;10.40;99.90;;;;;;5085728;28;20039;-64
2022/04/12 03:51:33;;;;;;;8.05;3.90;;;10.40;99.90;;;;;;5081802;28;20407;-63
2022/04/12 03:53:58;;;;;;;9.43;4.95;;;10.40;99.90;;;;;;5086891;28;20127;-63
2022/04/12 03:56:24;;;;;;;9.43;5.32;;;10.40;99.90;;;;;;5084988;28;20035;-62
2022/04/12 03:58:50;;;;;;;9.25;4.20;;;10.40;99.90;;;;;;5086720;28;20476;-63
2022/04/12 04:01:15;;;;;;;8.38;4.45;;;10.30;99.90;;;;;;5082000;28;20016;-63
2022/04/12 04:03:41;;;;;;;7.72;4.55;;;10.30;99.90;;;;;;5086844;28;20126;-63
2022/04/12 04:06:07;;;;;;;9.00;4.32;;;10.30;99.90;;;;;;5081052;28;20043;-64
2022/04/12 04:08:32;;;;;;;9.38;4.82;;;10.30;99.90;;;;;;5084852;28;20399;-63
2022/04/12 04:10:58;;;;;;;7.32;4.10;;;10.30;99.90;;;;;;5084002;28;20419;-63
2022/04/12 04:13:26;;;;;;;9.45;4.75;;;10.20;99.90;;;;;;5085405;28;20415;-63
2022/04/12 04:15:52;;;;;;;9.20;5.38;;;10.20;99.90;;;;;;5088204;28;20047;-64
2022/04/12 04:18:17;;;;;;;8.93;4.28;;;10.20;99.90;;;;;;5070157;28;20048;-64
2022/04/12 04:20:43;;;;;;;9.75;3.92;;;10.20;99.90;;;;;;5088644;28;20032;-64
2022/04/12 04:23:09;;;;;;;10.20;4.57;;;10.10;99.90;;;;;;5084148;28;20017;-64
2022/04/12 04:25:35;;;;;;;8.75;4.00;;;10.00;99.90;;;;;;5090138;28;20024;-64
2022/04/12 04:28:01;;;;;;;7.45;3.95;;;10.00;99.90;;;;;;5066889;28;20045;-63
2022/04/12 04:30:26;;;;;;;7.82;3.80;;;10.00;99.90;;;;;;5068397;28;20025;-63
2022/04/12 04:32:52;;;;;;;7.75;4.45;;;10.00;99.90;;;;;;5068563;28;20512;-64
2022/04/12 04:35:18;;;;;;;8.55;4.22;;;9.90;99.90;;;;;;5067773;28;20099;-64
2022/04/12 04:37:48;;;;;;;10.02;4.10;;;9.90;99.90;;;;;;5066470;28;20071;-63
2022/04/12 04:40:15;;;;;;;8.20;4.30;;;9.90;99.90;;;;;;5067263;28;20053;-64
2022/04/12 04:42:42;;;;;;;9.52;3.72;;;9.90;99.90;;;;;;5068403;28;20070;-63
2022/04/12 04:45:09;;;;;;;8.70;4.25;;;9.90;99.90;;;;;;5066162;28;20020;-62
2022/04/12 04:47:34;;;;;;;8.60;4.38;;;9.90;99.90;;;;;;5062578;28;20025;-64
2022/04/12 04:50:01;;;;;;;6.03;3.53;;;9.80;99.90;;;;;;5063683;28;20056;-64
2022/04/12 04:52:27;;;;;;;9.00;3.67;;;9.80;99.90;;;;;;5067770;28;20033;-66
2022/04/12 04:54:52;;;;;;;8.63;3.95;;;9.80;99.90;;;;;;5059882;28;20555;-64
2022/04/12 04:57:18;;;;;;;7.85;3.85;;;9.80;99.90;;;;;;5064271;28;20107;-64
2022/04/12 04:59:43;;;;;;;6.72;3.55;;;9.80;99.90;;;;;;5067718;28;20464;-63
2022/04/12 05:02:09;;;;;;;10.00;4.03;;;9.80;99.90;;;;;;5046256;28;20497;-63
2022/04/12 05:04:34;;;;;;;11.70;4.35;;;9.80;99.90;;;;;;5066900;28;20108;-63
2022/04/12 05:07:00;;;;;;;7.53;4.28;;;9.70;99.90;;;;;;5059913;28;20037;-63
2022/04/12 05:09:25;;;;;;;10.55;4.45;;;9.80;99.90;;;;;;5068841;28;20055;-63
2022/04/12 05:11:51;;;;;;;9.02;3.58;;;9.80;99.90;;;;;;5066766;28;20075;-63
2022/04/12 05:14:16;;;;;;;7.53;3.25;;;9.80;99.90;;;;;;5060475;28;20108;-63
2022/04/12 05:16:42;;;;;;;7.90;3.85;;;9.80;99.90;;;;;;5067819;28;20061;-63
2022/04/12 05:19:07;;;;;;;8.45;3.90;;;9.70;99.90;;;;;;5063474;28;20040;-63
2022/04/12 05:21:33;;;;;;;11.40;3.80;;;9.80;99.90;;;;;;5060867;28;20032;-63
2022/04/12 05:23:58;;;;;;;8.73;4.30;;;9.80;99.90;;;;;;5064299;28;20520;-63
2022/04/12 05:26:24;;;;;;;6.03;3.80;;;9.80;99.90;;;;;;5072086;28;20097;-63
2022/04/12 05:28:49;;;;;;;5.57;3.38;;;9.80;99.90;;;;;;5088331;28;20035;-63
2022/04/12 05:31:15;;;;;;;7.43;4.13;;;9.70;99.90;;;;;;5088198;28;20040;-61
2022/04/12 05:33:40;;;;;;;12.88;5.18;;;9.70;99.90;;;;;;5088459;28;20047;-63
2022/04/12 05:36:06;;;;;;;10.60;4.10;;;9.80;99.90;;;;;;5089087;28;20035;-63
2022/04/12 05:38:32;;;;;;;9.15;4.20;;;9.70;99.90;;;;;;5082623;28;20046;-64
2022/04/12 05:40:57;;;;;;;15.23;4.45;;;9.70;99.90;;;;;;5082869;28;20024;-63
2022/04/12 05:43:23;;;;;;;8.77;4.50;;;9.70;99.90;;;;;;5090342;28;20078;-60
2022/04/12 05:45:48;;;;;;;9.48;4.57;;;9.70;99.90;;;;;;5092891;28;20032;-63
2022/04/12 05:48:14;;;;;;;10.70;3.95;;;9.80;99.90;;;;;;5092554;28;20032;-63
2022/04/12 05:50:39;;;;;;;7.55;3.90;;;9.80;99.90;;;;;;5090027;28;20074;-63
2022/04/12 05:53:05;;;;;;;7.15;3.80;;;9.80;99.90;;;;;;5089436;28;20492;-62
2022/04/12 05:55:30;;;;;;;8.50;4.10;;;9.80;99.90;;;;;;5090952;28;20024;-64
2022/04/12 05:58:01;;;;;;;9.98;3.90;;;9.80;99.90;;;;;;5087100;28;20024;-63
2022/04/12 06:00:28;;;;;;;12.05;4.13;;;9.90;99.90;;;;;;5073931;28;20062;-63
2022/04/12 06:02:55;;;;;;;7.25;4.30;;;10.00;99.90;;;;;;5092225;28;20024;-64
2022/04/12 06:05:22;;;;;;;8.70;4.43;;;10.00;99.90;;;;;;5091094;28;20074;-63
2022/04/12 06:07:48;;;;;;;9.02;4.35;;;10.10;99.90;;;;;;5095074;28;20012;-62
2022/04/12 06:10:15;;;;;;;13.88;4.18;;;10.20;99.90;;;;;;5092205;28;20115;-64
2022/04/12 06:12:41;;;;;;;7.60;4.15;;;10.20;99.90;;;;;;5089394;28;20016;-63
2022/04/12 06:15:08;;;;;;;8.82;3.80;;;10.30;99.90;;;;;;5074118;28;20505;-63
2022/04/12 06:17:35;;;;;;;8.60;4.45;;;10.40;99.90;;;;;;5091578;28;20030;-63
2022/04/12 06:20:06;;;;;;;11.18;4.55;;;10.50;99.90;;;;;;5091914;28;20035;-63
2022/04/12 06:22:33;;;;;;;12.73;4.93;;;10.60;99.90;;;;;;5090897;28;20058;-63
2022/04/12 06:24:58;;;;;;;12.93;4.55;;;10.60;99.90;;;;;;5090629;28;20576;-64
2022/04/12 06:27:32;;;;;;;13.82;4.30;;;10.70;99.90;;;;;;5089949;28;20102;-62
2022/04/12 06:29:58;;;;;;;13.57;4.80;;;10.80;99.90;;;;;;5091231;28;20483;-63
2022/04/12 06:32:25;;;;;;;8.43;4.75;;;10.80;99.90;;;;;;5091164;28;20032;-63
2022/04/12 06:34:51;;;;;;;8.90;4.13;;;10.90;99.90;;;;;;5091898;28;20043;-63
2022/04/12 06:37:17;;;;;;;11.15;4.18;;;10.90;99.90;;;;;;5090805;28;20095;-63
2022/04/12 06:39:42;;;;;;;13.63;4.53;;;10.90;99.90;;;;;;5092639;28;20032;-63
2022/04/12 06:42:08;;;;;;;11.43;5.45;;;11.00;99.90;;;;;;5092649;28;20156;-62
2022/04/12 06:44:33;;;;;;;11.95;4.70;;;11.00;99.90;;;;;;5092685;28;20020;-64
2022/04/12 06:46:59;;;;;;;10.40;4.22;;;11.00;99.90;;;;;;5091812;28;20024;-62
2022/04/12 06:49:24;;;;;;;8.95;4.38;;;11.10;99.90;;;;;;5090285;28;20086;-63
2022/04/12 06:51:50;;;;;;;8.30;4.00;;;11.10;99.90;;;;;;5089788;28;20024;-62
2022/04/12 06:54:15;;;;;;;9.80;4.43;;;11.20;99.90;;;;;;5089449;28;20021;-62
2022/04/12 06:56:41;;;;;;;7.18;4.18;;;11.20;99.90;;;;;;5091236;28;20039;-62
2022/04/12 06:59:06;;;;;;;12.30;5.05;;;11.20;99.90;;;;;;5088265;28;20226;-62
2022/04/12 07:01:32;;;;;;;14.68;4.47;;;11.30;99.90;;;;;;5086669;28;20028;-62
2022/04/12 07:03:57;;;;;;;9.70;4.38;;;11.30;99.90;;;;;;5088692;28;20028;-62
2022/04/12 07:06:23;;;;;;;13.73;4.40;;;11.40;99.90;;;;;;5089734;28;20036;-63
2022/04/12 07:08:48;;;;;;;7.93;4.25;;;11.40;99.90;;;;;;5091346;28;20060;-62
2022/04/12 07:11:14;;;;;;;9.48;4.25;;;11.40;99.90;;;;;;5089496;28;20033;-61
2022/04/12 07:13:39;;;;;;;9.18;4.32;;;11.40;99.90;;;;;;5089933;28;20032;-63
2022/04/12 07:16:05;;;;;;;9.20;4.50;;;11.50;99.90;;;;;;5085744;28;20032;-63
2022/04/12 07:18:30;;;;;;;11.50;4.28;;;11.50;99.90;;;;;;5090316;28;20069;-61
2022/04/12 07:20:56;;;;;;;9.38;4.63;;;11.60;99.90;;;;;;5090477;28;20031;-62
2022/04/12 07:23:22;;;;;;;9.85;4.00;;;11.60;99.90;;;;;;5088963;28;20028;-64
2022/04/12 07:25:47;;;;;;;13.52;5.03;;;11.70;99.90;;;;;;5083335;28;20412;-61
2022/04/12 07:28:12;;;;;;;12.02;4.93;;;11.80;99.90;;;;;;5079068;28;20040;-60
2022/04/12 07:30:38;;;;;;;8.95;4.25;;;11.80;99.90;;;;;;5088128;28;20035;-62
2022/04/12 07:33:04;;;;;;;11.65;5.53;;;11.90;99.90;;;;;;5090084;28;20024;-62
2022/04/12 07:35:30;;;;;;;10.52;4.35;;;11.90;99.90;;;;;;5087794;28;20039;-61
2022/04/12 07:37:56;;;;;;;9.23;4.43;;;11.90;99.90;;;;;;5079335;28;20099;-62
2022/04/12 07:40:22;;;;;;;13.05;4.90;;;12.00;99.90;;;;;;5084208;28;20111;-62
2022/04/12 07:42:48;;;;;;;8.98;4.78;;;12.10;99.90;;;;;;5084600;28;20028;-62
2022/04/12 07:45:13;;;;;;;8.60;4.35;;;12.20;99.90;;;;;;5087681;28;20024;-62
2022/04/12 07:47:39;;;;;;;17.70;5.13;;;12.40;99.90;;;;;;5082791;28;20040;-57
2022/04/12 07:50:06;;;;;;;9.07;4.07;;;12.50;99.90;;;;;;5083217;28;20032;-61
2022/04/12 07:52:31;;;;;;;17.55;4.60;;;12.50;99.90;;;;;;5085183;28;20107;-63
2022/04/12 07:54:57;;;;;;;12.30;4.63;;;12.70;99.90;;;;;;5082786;28;20145;-51
2022/04/12 07:57:22;;;;;;;9.43;4.28;;;12.80;99.90;;;;;;5084866;28;20467;-56
2022/04/12 07:59:48;;;;;;;7.18;4.43;;;12.90;99.90;;;;;;5078762;28;20032;-52
2022/04/12 08:02:14;;;;;;;9.82;4.43;;;13.10;99.90;;;;;;5088393;28;20048;-57
2022/04/12 08:04:42;;;;;;;9.88;4.72;;;13.20;99.90;;;;;;5085413;28;20028;-55
2022/04/12 08:07:07;;;;;;;10.57;4.88;;;13.40;99.90;;;;;;5085609;28;20012;-55
2022/04/12 08:09:33;;;;;;;6.97;4.65;;;13.40;99.90;;;;;;5085808;28;20407;-56
2022/04/12 08:11:58;;;;;;;8.45;4.13;;;13.60;99.90;;;;;;5086812;28;20687;-53
2022/04/12 08:14:24;;;;;;;7.65;3.80;;;13.70;99.90;;;;;;5085077;28;20047;-56
2022/04/12 08:16:51;;;;;;;7.57;4.32;;;13.80;99.90;;;;;;5083597;28;20499;-56
2022/04/12 08:19:16;;;;;;;9.98;4.78;;;13.90;99.90;;;;;;5068402;28;20028;-56
2022/04/12 08:21:42;;;;;;;8.88;4.82;;;13.90;99.90;;;;;;5086615;28;20024;-59
2022/04/12 08:24:08;;;;;;;10.90;4.15;;;14.00;99.90;;;;;;5081378;28;20016;-55
2022/04/12 08:26:34;;;;;;;7.82;4.65;;;14.10;99.90;;;;;;5085290;28;20058;-52
2022/04/12 08:29:00;;;;;;;9.63;4.80;;;14.20;99.90;;;;;;5088801;28;20038;-55
2022/04/12 08:31:25;;;;;;;9.60;3.92;;;14.30;99.90;;;;;;5083205;28;20106;-54
2022/04/12 08:33:51;;;;;;;9.88;4.07;;;14.50;99.90;;;;;;5082046;28;20027;-57
2022/04/12 08:36:20;;;;;;;11.48;4.25;;;14.60;99.90;;;;;;5075079;28;20097;-54
2022/04/12 08:38:46;;;;;;;6.13;3.28;;;14.70;99.90;;;;;;5088267;28;20078;-56
2022/04/12 08:41:13;;;;;;;8.55;4.45;;;14.90;99.90;;;;;;5087815;28;20466;-55
2022/04/12 08:43:40;;;;;;;7.93;3.67;;;15.00;99.90;;;;;;5088202;28;20081;-57
2022/04/12 08:46:06;;;;;;;12.45;3.92;;;15.20;99.90;;;;;;5079505;28;20027;-57
2022/04/12 08:48:32;;;;;;;12.32;4.15;;;15.40;99.90;;;;;;5086977;28;20032;-55
2022/04/12 08:50:58;;;;;;;8.30;3.75;;;15.50;99.90;;;;;;5079365;28;20035;-54
2022/04/12 08:53:25;;;;;;;10.75;3.63;;;15.60;99.90;;;;;;5065177;28;20028;-62
2022/04/12 08:55:51;;;;;;;8.65;4.30;;;15.80;99.90;;;;;;5085592;28;20020;-55
2022/04/12 08:58:16;;;;;;;9.48;3.08;;;15.90;99.90;;;;;;5083794;28;20129;-57
2022/04/12 09:00:42;;;;;;;7.55;3.63;;;16.00;99.90;;;;;;5080157;28;20028;-56
2022/04/12 09:03:08;;;;;;;5.20;3.10;;;16.00;99.90;;;;;;5088320;28;20028;-58
2022/04/12 09:05:33;;;;;;;9.30;3.85;;;16.10;99.90;;;;;;5081886;28;20043;-53
2022/04/12 09:08:00;;;;;;;8.63;3.35;;;16.10;99.90;;;;;;5085048;28;20637;-53
2022/04/12 09:10:35;;;;;;;11.70;4.03;;;16.10;99.90;;;;;;5085951;28;20035;-53
2022/04/12 09:13:12;;;;;;;5.40;3.00;;;16.20;99.90;;;;;;5090784;28;20072;-60
2022/04/12 09:15:43;;;;;;;11.85;3.25;;;16.40;99.90;;;;;;5088381;28;20016;-55
2022/04/12 09:18:09;;;;;;;9.88;3.92;;;16.50;99.90;;;;;;5085282;28;20021;-57
2022/04/12 09:20:35;;;;;;;8.43;3.33;;;16.70;99.90;;;;;;5091340;28;20016;-55
2022/04/12 09:23:00;;;;;;;10.27;3.65;;;16.90;99.90;;;;;;5089745;28;20073;-56
2022/04/12 09:25:26;;;;;;;8.43;3.58;;;17.00;99.90;;;;;;5089965;28;20035;-55
2022/04/12 09:27:52;;;;;;;5.55;2.60;;;17.10;99.90;;;;;;5090856;28;20551;-56
2022/04/12 09:30:18;;;;;;;6.18;3.20;;;17.30;99.90;;;;;;5107142;22;20036;-55
2022/04/12 09:32:48;;;;;;;4.95;3.28;;;17.50;99.90;;;;;;5092529;28;20012;-57
2022/04/12 09:35:15;;;;;;;5.95;3.15;;;17.70;99.90;;;;;;5092305;28;20728;-54
2022/04/12 09:37:42;;;;;;;7.05;4.00;;;17.80;99.90;;;;;;5093494;28;20032;-54
2022/04/12 09:40:15;;;;;;;7.35;3.53;;;17.90;99.90;;;;;;5086862;28;20123;-53
2022/04/12 09:42:55;;;;;;;6.88;2.83;;;18.10;99.90;;;;;;5086196;28;20103;-55
2022/04/12 09:45:27;;;;;;;10.88;3.38;;;18.00;99.90;;;;;;5088899;28;20107;-54
2022/04/12 09:47:55;;;;;;;8.90;3.33;;;18.00;99.90;;;;;;5087342;28;20523;-57
2022/04/12 09:50:26;;;;;;;3.95;2.58;;;18.00;99.90;;;;;;5096559;28;20041;-56
2022/04/12 09:52:58;;;;;;;6.63;3.58;;;18.20;99.90;;;;;;5090020;28;20085;-55
2022/04/12 09:55:43;;;;;;;7.50;3.78;;;18.40;99.90;;;;;;5092652;28;20047;-55
2022/04/12 09:58:13;;;;;;;8.10;3.63;;;18.40;99.90;;;;;;5082427;28;20038;-55
2022/04/12 10:00:41;;;;;;;9.32;3.33;;;18.50;99.90;;;;;;5090085;28;20036;-54
2022/04/12 10:03:08;;;;;;;5.38;3.22;;;18.70;99.90;;;;;;5096755;28;20164;-54
2022/04/12 10:05:35;;;;;;;8.43;3.90;;;18.90;99.90;;;;;;5091892;28;20483;-56
2022/04/12 10:08:03;;;;;;;5.68;3.22;;;19.10;99.90;;;;;;5093769;28;20032;-55
2022/04/12 10:10:29;;;;;;;5.57;3.22;;;19.30;99.90;;;;;;5092689;28;20126;-54
2022/04/12 10:12:56;;;;;;;6.68;3.17;;;19.50;99.90;;;;;;5091901;28;20024;-55
2022/04/12 10:15:23;;;;;;;7.28;2.75;;;19.70;99.90;;;;;;5092835;28;20066;-53
2022/04/12 10:17:50;;;;;;;4.03;2.60;;;19.70;99.90;;;;;;5091020;28;20028;-54
2022/04/12 10:20:18;;;;;;;10.60;2.40;;;19.90;99.90;;;;;;5092485;28;20032;-53
2022/04/12 10:22:44;;;;;;;9.93;2.10;;;19.90;99.90;;;;;;5086133;28;20111;-56
2022/04/12 10:25:11;;;;;;;4.93;2.33;;;20.10;99.90;;;;;;5093701;28;20035;-55
2022/04/12 10:27:38;;;;;;;5.25;2.58;;;20.20;99.90;;;;;;5092749;28;20039;-54
2022/04/12 10:30:16;;;;;;;7.28;1.92;;;20.30;99.90;;;;;;5092085;28;20040;-54
2022/04/12 10:32:57;;;;;;;5.88;1.80;;;20.50;99.90;;;;;;5091939;28;20123;-55
2022/04/12 10:35:23;;;;;;;7.03;2.00;;;20.60;99.90;;;;;;5087564;28;20036;-54
2022/04/12 10:37:51;;;;;;;4.93;2.17;;;20.60;99.90;;;;;;5092264;28;20032;-55
2022/04/12 10:40:17;;;;;;;4.20;2.00;;;20.90;99.90;;;;;;5091569;28;20418;-57
2022/04/12 10:42:42;;;;;;;5.07;2.10;;;21.10;99.90;;;;;;5092025;28;20028;-55
2022/04/12 10:45:10;;;;;;;6.35;1.58;;;21.20;99.90;;;;;;5092477;28;20103;-53
2022/04/12 10:47:42;;;;;;;7.88;1.92;;;21.50;99.90;;;;;;5092112;28;20024;-53
2022/04/12 10:50:10;;;;;;;7.78;2.20;;;21.70;99.90;;;;;;5099520;28;20038;-54
2022/04/12 10:52:43;;;;;;;6.57;1.80;;;22.00;99.90;;;;;;5105567;28;20031;-57
2022/04/12 10:55:12;;;;;;;6.50;2.10;;;22.00;99.90;;;;;;5084943;28;20415;-53
2022/04/12 10:57:38;;;;;;;3.90;1.63;;;22.20;99.90;;;;;;5104720;28;20099;-53
2022/04/12 11:00:14;;;;;;;3.67;1.83;;;22.00;99.90;;;;;;5094124;28;20107;-53
2022/04/12 11:02:52;;;;;;;3.42;1.70;;;22.20;99.90;;;;;;5090097;28;20107;-53
2022/04/12 11:05:37;;;;;;;4.22;1.55;;;22.30;99.90;;;;;;5107987;28;20107;-56
2022/04/12 11:08:06;;;;;;;4.38;1.60;;;22.50;99.90;;;;;;5103243;28;20075;-55
2022/04/12 11:10:32;;;;;;;3.70;1.50;;;22.60;99.90;;;;;;5102786;28;20027;-53
2022/04/12 11:13:10;;;;;;;8.27;2.00;;;22.70;99.10;;;;;;5110637;28;20438;-57
2022/04/12 11:15:37;;;;;;;5.38;1.60;;;22.60;99.70;;;;;;5084919;28;20491;-58
2022/04/12 11:18:14;;;;;;;2.65;1.77;;;22.70;99.20;;;;;;5084793;28;20028;-58
2022/04/12 11:20:46;;;;;;;2.38;2.00;;;22.80;99.90;;;;;;5094063;28;20608;-55
2022/04/12 11:23:13;;;;;;;5.25;1.50;;;22.70;98.70;;;;;;5107276;28;20510;-59
2022/04/12 11:25:49;;;;;;;6.28;1.92;;;22.80;99.70;;;;;;5091194;28;20031;-58
2022/04/12 11:28:25;;;;;;;4.75;1.90;;;22.80;99.90;;;;;;5091349;28;20499;-57
2022/04/12 11:30:58;;;;;;;3.15;1.92;;;23.10;99.90;;;;;;5074346;28;20039;-58
2022/04/12 11:33:25;;;;;;;4.13;2.03;;;23.10;99.70;;;;;;5091024;28;20016;-56
2022/04/12 11:35:52;;;;;;;6.72;1.90;;;23.20;99.90;;;;;;5091700;28;20099;-57
2022/04/12 11:38:19;;;;;;;3.35;1.70;;;23.20;99.00;;;;;;5091368;28;20028;-57
2022/04/12 11:40:45;;;;;;;4.15;1.85;;;23.20;98.90;;;;;;5099294;28;20055;-57
2022/04/12 11:43:40;;;;;;;5.80;1.30;;;23.40;99.70;;;;;;5110742;28;20047;-54
2022/04/12 11:46:05;;;;;;;;;;;23.50;98.90;;;;;;5083097;28;20503;-56
2022/04/12 11:48:32;;;;;;;2.50;1.67;;;23.50;99.20;;;;;;5095728;28;19912;-56
2022/04/12 11:51:01;;;;;;;4.63;1.80;;;23.50;98.10;;;;;;5102255;28;20487;-55
2022/04/12 11:53:27;;;;;;;7.13;1.70;;;23.50;97.00;;;;;;5095805;28;20407;-55
2022/04/12 11:56:00;;;;;;;5.65;1.27;;;23.50;97.40;;;;;;5105798;28;20028;-57
2022/04/12 11:58:28;;;;;;;5.97;1.83;;;23.30;97.70;;;;;;5110999;28;20031;-54
2022/04/12 12:00:54;;;;;;;3.10;1.63;;;23.30;97.20;;;;;;5111489;28;20116;-55
2022/04/12 12:03:19;;;;;;;4.72;1.40;;;23.40;96.50;;;;;;5111399;28;20471;-57
2022/04/12 12:05:46;;;;;;;3.85;1.35;;;23.50;97.10;;;;;;5104708;28;20368;-56
2022/04/12 12:08:17;;;;;;;2.72;1.67;;;23.70;97.90;;;;;;5111215;28;20020;-57
2022/04/12 12:10:42;;;;;;;2.67;1.30;;;24.00;97.90;;;;;;5098162;28;20027;-61
2022/04/12 12:13:08;;;;;;;7.35;1.80;;;24.50;96.20;;;;;;5098573;28;20068;-58
2022/04/12 12:15:35;;;;;;;3.15;1.60;;;24.80;97.70;;;;;;5111220;28;20110;-58
2022/04/12 12:18:03;;;;;;;6.07;1.60;;;24.80;96.00;;;;;;5111585;28;20035;-58
2022/04/12 12:20:31;;;;;;;3.85;1.48;;;24.60;96.90;;;;;;5111231;28;20039;-56
2022/04/12 12:22:59;;;;;;;7.60;1.70;;;24.10;96.30;;;;;;5111054;28;20023;-57
2022/04/12 12:25:39;;;;;;;2.45;1.23;;;24.00;95.10;;;;;;5110810;28;20085;-54
2022/04/12 12:28:25;;;;;;;4.30;1.25;;;24.10;95.10;;;;;;5109007;28;20489;-57
2022/04/12 12:31:01;;;;;;;3.95;1.30;;;24.30;95.70;;;;;;5085296;28;20034;-57
2022/04/12 12:33:48;;;;;;;7.07;1.88;;;24.60;95.90;;;;;;5086206;28;20048;-58
2022/04/12 12:36:18;;;;;;;4.03;1.30;;;24.40;96.10;;;;;;5091403;28;20024;-58
2022/04/12 12:38:44;;;;;;;2.20;1.00;;;24.10;95.60;;;;;;5090878;28;20043;-58
2022/04/12 12:41:10;;;;;;;2.78;1.17;;;23.80;96.40;;;;;;5091693;28;20024;-59
2022/04/12 12:43:35;;;;;;;5.53;1.30;;;23.60;97.80;;;;;;5091914;28;20476;-56
2022/04/12 12:46:06;;;;;;;5.30;1.40;;;23.60;96.70;;;;;;5100113;28;20038;-59
2022/04/12 12:48:32;;;;;;;4.63;1.50;;;23.50;96.30;;;;;;5111164;28;20038;-57